Time;durP1;ratioP1;P1;durP2;ratioP2;P2;SDS_P1;SDS_P2;PMS_P1;PMS_P2;Temp;Humidity;BMP_temperature;BMP_pressure;BME280_temperature;BME280_humidity;BME280_pressure;Samples;Min_cycle;Max_cycle;Signal;HPM_P1;HPM_P2
2022/03/10 00:00:24;;;;;;;10.80;3.95;;;8.50;83.80;;;;;;5074028;28;20071;-59
2022/03/10 00:02:51;;;;;;;7.85;4.13;;;8.50;83.80;;;;;;5073713;28;20123;-59
2022/03/10 00:05:21;;;;;;;7.93;3.83;;;8.50;83.90;;;;;;5063723;28;20040;-60
2022/03/10 00:07:49;;;;;;;5.47;3.40;;;8.50;84.00;;;;;;5084162;28;20480;-59
2022/03/10 00:10:16;;;;;;;8.73;4.30;;;8.50;83.90;;;;;;5073577;28;20054;-59
2022/03/10 00:12:52;;;;;;;7.82;4.30;;;8.50;84.10;;;;;;5058890;28;20118;-60
2022/03/10 00:15:24;;;;;;;8.30;4.43;;;8.50;84.00;;;;;;5062899;28;20048;-59
2022/03/10 00:17:53;;;;;;;7.10;3.33;;;8.50;84.10;;;;;;5078619;28;20037;-60
2022/03/10 00:20:22;;;;;;;9.55;3.70;;;8.50;84.10;;;;;;5060740;28;20044;-60
2022/03/10 00:22:52;;;;;;;7.43;3.22;;;8.50;84.20;;;;;;5074007;28;20039;-59
2022/03/10 00:25:19;;;;;;;6.60;3.72;;;8.50;84.00;;;;;;5075563;28;20127;-59
2022/03/10 00:27:47;;;;;;;6.30;3.35;;;8.50;83.50;;;;;;5056120;28;20589;-60
2022/03/10 00:30:16;;;;;;;5.63;2.95;;;8.40;83.40;;;;;;5067513;28;20054;-59
2022/03/10 00:32:48;;;;;;;5.43;3.13;;;8.40;83.80;;;;;;5078200;28;20032;-60
2022/03/10 00:35:21;;;;;;;4.78;2.90;;;8.30;83.80;;;;;;5078940;28;20490;-59
2022/03/10 00:37:52;;;;;;;6.40;2.63;;;8.30;84.10;;;;;;5064583;28;20570;-60
2022/03/10 00:40:21;;;;;;;5.50;2.83;;;8.20;84.40;;;;;;5080754;28;20036;-59
2022/03/10 00:42:49;;;;;;;5.13;2.80;;;8.20;84.60;;;;;;5067728;28;20040;-60
2022/03/10 00:45:17;;;;;;;4.72;3.00;;;8.20;84.80;;;;;;5069195;28;20067;-59
2022/03/10 00:47:45;;;;;;;4.53;3.08;;;8.30;84.90;;;;;;5069423;28;20045;-59
2022/03/10 00:50:12;;;;;;;6.05;3.15;;;8.30;84.80;;;;;;5060202;28;20048;-60
2022/03/10 00:52:42;;;;;;;5.65;3.47;;;8.30;84.80;;;;;;5062527;28;20162;-60
2022/03/10 00:55:10;;;;;;;5.53;3.60;;;8.30;84.80;;;;;;5061698;28;20033;-60
2022/03/10 00:57:39;;;;;;;5.50;2.78;;;8.30;84.80;;;;;;5075290;28;20036;-59
2022/03/10 01:00:08;;;;;;;5.10;3.03;;;8.30;84.70;;;;;;5080547;28;20052;-59
2022/03/10 01:02:36;;;;;;;6.70;3.60;;;8.30;84.80;;;;;;5046610;28;20539;-60
2022/03/10 01:05:05;;;;;;;4.22;2.60;;;8.30;85.10;;;;;;5086878;28;20052;-59
2022/03/10 01:07:33;;;;;;;4.53;2.58;;;8.20;84.90;;;;;;5085001;28;20032;-60
2022/03/10 01:10:04;;;;;;;6.70;2.78;;;8.20;84.90;;;;;;5063751;28;20032;-60
2022/03/10 01:12:34;;;;;;;5.43;2.67;;;8.20;84.80;;;;;;5061781;28;20053;-60
2022/03/10 01:15:03;;;;;;;5.00;2.55;;;8.20;84.80;;;;;;5066002;28;20037;-60
2022/03/10 01:17:30;;;;;;;5.45;3.15;;;8.20;84.90;;;;;;5050139;28;20163;-59
2022/03/10 01:19:57;;;;;;;3.83;2.50;;;8.10;85.00;;;;;;5067001;28;20127;-60
2022/03/10 01:22:25;;;;;;;5.40;2.63;;;8.20;85.10;;;;;;5061350;28;20036;-59
2022/03/10 01:24:52;;;;;;;5.47;3.33;;;8.10;85.30;;;;;;5084249;28;20063;-59
2022/03/10 01:27:20;;;;;;;4.53;2.80;;;8.20;85.40;;;;;;5087429;28;20044;-59
2022/03/10 01:29:48;;;;;;;4.18;2.72;;;8.20;85.40;;;;;;5075968;28;20513;-59
2022/03/10 01:32:15;;;;;;;5.53;3.28;;;8.20;85.60;;;;;;5058700;28;20094;-59
2022/03/10 01:34:43;;;;;;;3.72;2.30;;;8.20;85.70;;;;;;5058626;28;20043;-59
2022/03/10 01:37:11;;;;;;;5.78;3.25;;;8.20;85.70;;;;;;5059093;28;20044;-59
2022/03/10 01:39:38;;;;;;;5.15;2.40;;;8.20;85.60;;;;;;5059012;28;20040;-60
2022/03/10 01:42:06;;;;;;;3.60;2.75;;;8.20;85.70;;;;;;5076240;28;20394;-59
2022/03/10 01:44:35;;;;;;;4.10;3.05;;;8.10;85.40;;;;;;5076267;28;20040;-59
2022/03/10 01:47:03;;;;;;;4.53;2.55;;;8.10;85.30;;;;;;5076297;28;20119;-60
2022/03/10 01:49:35;;;;;;;6.38;3.50;;;8.10;85.10;;;;;;5076287;28;20041;-60
2022/03/10 01:52:03;;;;;;;5.18;3.00;;;8.10;85.20;;;;;;5076187;28;20044;-59
2022/03/10 01:54:30;;;;;;;3.40;2.50;;;8.10;85.20;;;;;;5075963;28;20036;-60
2022/03/10 01:56:59;;;;;;;5.60;2.65;;;8.10;85.40;;;;;;5076004;28;20047;-59
2022/03/10 01:59:26;;;;;;;3.92;2.42;;;8.00;85.50;;;;;;5076224;28;20044;-59
2022/03/10 02:01:54;;;;;;;4.75;2.60;;;8.00;85.40;;;;;;5058242;28;20037;-60
2022/03/10 02:04:22;;;;;;;7.57;3.40;;;8.00;85.50;;;;;;5076256;28;20483;-60
2022/03/10 02:06:51;;;;;;;4.15;2.58;;;8.10;85.70;;;;;;5075913;28;20044;-60
2022/03/10 02:12:21;;;;;;;6.95;3.75;;;8.10;85.80;;;;;;5014284;28;20086;-59
2022/03/10 02:17:39;;;;;;;6.22;2.72;;;8.10;86.00;;;;;;5075826;28;20048;-59
2022/03/10 02:20:07;;;;;;;4.93;3.50;;;8.10;86.40;;;;;;5057946;28;20049;-59
2022/03/10 02:22:35;;;;;;;4.38;2.80;;;8.10;86.60;;;;;;5058041;28;20565;-60
2022/03/10 02:25:03;;;;;;;4.78;2.75;;;8.10;86.70;;;;;;5075549;28;20486;-59
2022/03/10 02:27:31;;;;;;;5.25;2.88;;;8.10;87.00;;;;;;5075585;28;20109;-59
2022/03/10 02:30:00;;;;;;;4.03;2.75;;;8.10;87.10;;;;;;5075481;28;20106;-59
2022/03/10 02:32:29;;;;;;;7.65;4.20;;;8.10;87.30;;;;;;5075428;28;20048;-59
2022/03/10 02:34:56;;;;;;;5.47;3.47;;;8.10;87.10;;;;;;5075542;28;20045;-59
2022/03/10 02:37:24;;;;;;;3.95;2.70;;;8.00;87.40;;;;;;5074509;28;20086;-60
2022/03/10 02:39:51;;;;;;;5.55;2.78;;;8.00;88.10;;;;;;5093371;28;20093;-59
2022/03/10 02:42:19;;;;;;;5.88;3.05;;;8.00;88.40;;;;;;5095584;28;20087;-59
2022/03/10 02:44:48;;;;;;;4.10;2.78;;;8.00;88.00;;;;;;5095428;28;20036;-59
2022/03/10 02:47:18;;;;;;;5.47;2.90;;;8.00;88.10;;;;;;5077199;28;20079;-59
2022/03/10 02:49:45;;;;;;;6.13;3.10;;;8.00;88.30;;;;;;5095104;28;20437;-59
2022/03/10 02:52:13;;;;;;;6.22;3.05;;;8.00;88.60;;;;;;5095381;28;20463;-59
2022/03/10 02:54:43;;;;;;;6.03;2.92;;;8.00;88.60;;;;;;5095162;28;20036;-59
2022/03/10 02:57:12;;;;;;;4.05;2.95;;;8.00;88.80;;;;;;5077182;28;20115;-59
2022/03/10 02:59:39;;;;;;;7.22;4.20;;;8.10;89.00;;;;;;5095047;28;20048;-59
2022/03/10 03:02:07;;;;;;;6.32;4.03;;;8.00;89.10;;;;;;5077121;28;20127;-60
2022/03/10 03:04:35;;;;;;;5.18;3.17;;;8.00;89.30;;;;;;5094670;28;20044;-59
2022/03/10 03:07:03;;;;;;;4.68;2.70;;;8.00;89.40;;;;;;5095034;28;20043;-60
2022/03/10 03:09:31;;;;;;;4.72;3.65;;;8.10;89.60;;;;;;5095011;28;20063;-59
2022/03/10 03:11:58;;;;;;;4.35;2.88;;;8.10;89.70;;;;;;5095058;28;20072;-60
2022/03/10 03:14:26;;;;;;;4.18;2.70;;;8.10;89.70;;;;;;5094799;28;20040;-59
2022/03/10 03:16:57;;;;;;;4.30;2.92;;;8.10;89.90;;;;;;5094769;28;20060;-59
2022/03/10 03:19:26;;;;;;;7.82;3.33;;;8.00;89.90;;;;;;5076846;28;20046;-59
2022/03/10 03:21:53;;;;;;;3.97;2.80;;;8.00;90.00;;;;;;5094979;28;20040;-59
2022/03/10 03:24:21;;;;;;;5.47;4.15;;;8.00;90.00;;;;;;5060219;28;20126;-60
2022/03/10 03:26:49;;;;;;;5.07;2.83;;;8.10;90.10;;;;;;5076448;28;20044;-59
2022/03/10 03:29:17;;;;;;;5.15;3.50;;;8.00;90.20;;;;;;5094611;28;20105;-60
2022/03/10 03:31:44;;;;;;;8.65;3.08;;;8.00;90.20;;;;;;5094710;28;20086;-59
2022/03/10 03:34:12;;;;;;;6.40;2.97;;;8.00;90.30;;;;;;5076833;28;20060;-59
2022/03/10 03:36:42;;;;;;;4.85;3.00;;;8.00;90.30;;;;;;5094378;28;20055;-59
2022/03/10 03:39:10;;;;;;;5.55;3.63;;;8.00;90.30;;;;;;5094534;28;20487;-59
2022/03/10 03:41:37;;;;;;;6.18;3.53;;;8.00;90.30;;;;;;5094235;28;20119;-59
2022/03/10 03:44:08;;;;;;;4.28;2.95;;;8.00;90.30;;;;;;5094823;28;20036;-59
2022/03/10 03:46:37;;;;;;;6.53;3.10;;;7.90;90.30;;;;;;5094489;28;20048;-59
2022/03/10 03:49:07;;;;;;;4.78;3.00;;;7.90;90.30;;;;;;5076433;28;20043;-59
2022/03/10 03:51:35;;;;;;;4.75;2.80;;;7.90;90.40;;;;;;5075525;28;20048;-60
2022/03/10 03:54:05;;;;;;;5.97;2.75;;;7.90;90.40;;;;;;5094156;28;20482;-59
2022/03/10 03:56:32;;;;;;;4.88;3.30;;;7.90;90.40;;;;;;5094273;28;20089;-59
2022/03/10 03:59:00;;;;;;;5.68;3.00;;;7.90;90.40;;;;;;5093947;28;20047;-59
2022/03/10 04:01:27;;;;;;;4.60;3.05;;;7.90;90.60;;;;;;5093921;28;20549;-59
2022/03/10 04:03:55;;;;;;;4.90;2.90;;;7.90;90.70;;;;;;5094151;28;20040;-59
2022/03/10 04:06:24;;;;;;;7.40;3.22;;;7.90;90.80;;;;;;5094039;28;20078;-59
2022/03/10 04:08:52;;;;;;;4.45;2.75;;;7.80;90.90;;;;;;5059314;28;20040;-59
2022/03/10 04:11:19;;;;;;;6.05;3.90;;;7.70;90.90;;;;;;5094126;28;20079;-59
2022/03/10 04:13:47;;;;;;;4.40;3.17;;;7.70;91.10;;;;;;5093855;28;20371;-59
2022/03/10 04:16:16;;;;;;;5.47;2.63;;;7.60;91.20;;;;;;5093359;28;20425;-59
2022/03/10 04:18:44;;;;;;;5.47;3.20;;;7.60;91.30;;;;;;5093745;28;20105;-59
2022/03/10 04:21:11;;;;;;;6.03;3.15;;;7.50;91.40;;;;;;5093872;28;20036;-59
2022/03/10 04:23:39;;;;;;;6.55;3.08;;;7.50;91.50;;;;;;5075930;28;20051;-59
2022/03/10 04:26:06;;;;;;;8.00;4.15;;;7.50;91.50;;;;;;5093704;28;20079;-59
2022/03/10 04:28:34;;;;;;;5.80;3.45;;;7.50;91.60;;;;;;5075683;28;20445;-59
2022/03/10 04:31:01;;;;;;;6.22;4.05;;;7.50;91.70;;;;;;5059031;28;20044;-59
2022/03/10 04:33:29;;;;;;;6.40;2.78;;;7.50;91.70;;;;;;5075840;28;20047;-59
2022/03/10 04:35:56;;;;;;;4.13;2.55;;;7.50;91.80;;;;;;5075781;28;20383;-59
2022/03/10 04:38:24;;;;;;;5.22;3.13;;;7.50;91.80;;;;;;5093732;28;20040;-59
2022/03/10 04:40:52;;;;;;;5.05;2.60;;;7.50;91.90;;;;;;5075977;28;20052;-59
2022/03/10 04:43:19;;;;;;;6.05;3.20;;;7.50;92.00;;;;;;5093436;28;20113;-59
2022/03/10 04:45:47;;;;;;;5.75;3.30;;;7.50;92.10;;;;;;5075558;28;20103;-59
2022/03/10 04:48:14;;;;;;;7.13;3.45;;;7.40;92.10;;;;;;5075564;28;20055;-59
2022/03/10 04:50:42;;;;;;;4.72;3.03;;;7.50;92.10;;;;;;5093332;28;20042;-59
2022/03/10 04:53:09;;;;;;;5.93;2.45;;;7.50;92.20;;;;;;5075484;28;20426;-59
2022/03/10 04:55:37;;;;;;;6.72;2.75;;;7.50;92.20;;;;;;5075435;28;20072;-59
2022/03/10 04:58:05;;;;;;;5.05;2.95;;;7.60;92.30;;;;;;5093465;28;20048;-59
2022/03/10 05:00:33;;;;;;;6.93;4.45;;;7.60;92.20;;;;;;5093285;28;20486;-59
2022/03/10 05:03:00;;;;;;;4.97;3.05;;;7.60;92.20;;;;;;5093345;28;20055;-59
2022/03/10 05:05:28;;;;;;;5.18;2.97;;;7.60;92.30;;;;;;5093509;28;20041;-59
2022/03/10 05:07:55;;;;;;;5.20;3.10;;;7.50;92.40;;;;;;5093747;28;20036;-59
2022/03/10 05:10:23;;;;;;;6.18;3.70;;;7.50;92.50;;;;;;5075732;28;20036;-59
2022/03/10 05:12:53;;;;;;;7.65;3.53;;;7.50;92.80;;;;;;5093419;28;20101;-59
2022/03/10 05:15:26;;;;;;;5.85;3.60;;;7.40;92.90;;;;;;5074930;28;20044;-59
2022/03/10 05:17:54;;;;;;;5.53;3.90;;;7.40;93.10;;;;;;5093393;28;20132;-59
2022/03/10 05:20:22;;;;;;;6.55;3.67;;;7.40;93.20;;;;;;5093180;28;20044;-59
2022/03/10 05:22:54;;;;;;;6.57;3.47;;;7.50;93.30;;;;;;5093079;28;20047;-59
2022/03/10 05:25:24;;;;;;;7.22;4.13;;;7.40;93.40;;;;;;5093094;28;20047;-59
2022/03/10 05:27:55;;;;;;;5.65;3.85;;;7.40;93.40;;;;;;5078356;28;20111;-59
2022/03/10 05:30:23;;;;;;;6.25;4.00;;;7.40;93.60;;;;;;5073720;28;20145;-59
2022/03/10 05:32:51;;;;;;;7.75;3.60;;;7.50;93.60;;;;;;5053965;28;20910;-59
2022/03/10 05:35:19;;;;;;;9.23;3.75;;;7.50;93.70;;;;;;5069977;28;20047;-59
2022/03/10 05:37:48;;;;;;;6.75;3.75;;;7.50;93.70;;;;;;5079919;28;20067;-59
2022/03/10 05:40:19;;;;;;;6.10;4.50;;;7.50;93.60;;;;;;5071242;28;20040;-60
2022/03/10 05:42:47;;;;;;;8.50;5.00;;;7.50;93.80;;;;;;5065350;28;20125;-59
2022/03/10 05:45:20;;;;;;;9.27;5.38;;;7.50;93.80;;;;;;5075130;28;20044;-59
2022/03/10 05:47:56;;;;;;;7.03;4.68;;;7.50;93.90;;;;;;5062996;28;20048;-59
2022/03/10 05:50:26;;;;;;;7.93;3.90;;;7.50;93.90;;;;;;5084272;28;20040;-59
2022/03/10 05:52:54;;;;;;;6.85;4.40;;;7.50;93.90;;;;;;5071458;28;20098;-59
2022/03/10 05:55:23;;;;;;;10.32;5.60;;;7.50;94.00;;;;;;5075945;28;20079;-59
2022/03/10 05:57:51;;;;;;;8.70;5.63;;;7.50;94.10;;;;;;5057972;28;20040;-59
2022/03/10 06:00:18;;;;;;;9.18;5.95;;;7.50;94.10;;;;;;5041272;28;20106;-59
2022/03/10 06:02:47;;;;;;;10.90;5.78;;;7.50;94.10;;;;;;5075971;28;20036;-59
2022/03/10 06:05:15;;;;;;;6.75;4.88;;;7.60;94.20;;;;;;5058082;28;20502;-59
2022/03/10 06:07:42;;;;;;;8.18;4.47;;;7.60;94.20;;;;;;5076147;28;20037;-59
2022/03/10 06:10:10;;;;;;;6.60;4.20;;;7.60;94.20;;;;;;5075843;28;20191;-59
2022/03/10 06:12:38;;;;;;;7.97;5.00;;;7.60;94.00;;;;;;5057916;28;20576;-60
2022/03/10 06:15:08;;;;;;;9.63;5.53;;;7.70;93.70;;;;;;5058043;28;20090;-60
2022/03/10 06:17:36;;;;;;;5.53;3.17;;;7.60;93.70;;;;;;5058056;28;20032;-59
2022/03/10 06:20:05;;;;;;;7.88;4.20;;;7.60;93.60;;;;;;5041202;28;20503;-59
2022/03/10 06:22:35;;;;;;;7.53;3.85;;;7.70;93.70;;;;;;5075621;28;20059;-60
2022/03/10 06:25:03;;;;;;;7.75;3.88;;;7.70;93.70;;;;;;5057664;28;20047;-60
2022/03/10 06:27:31;;;;;;;7.10;4.18;;;7.70;93.60;;;;;;5058026;28;20053;-60
2022/03/10 06:29:58;;;;;;;7.30;4.93;;;7.70;93.60;;;;;;5075675;28;20414;-59
2022/03/10 06:32:26;;;;;;;7.60;4.25;;;7.80;93.70;;;;;;5075808;28;20521;-59
2022/03/10 06:34:56;;;;;;;7.05;4.70;;;8.00;93.60;;;;;;5075467;28;20509;-60
2022/03/10 06:37:23;;;;;;;6.68;4.28;;;8.10;93.40;;;;;;5075110;28;20041;-60
2022/03/10 06:39:52;;;;;;;6.35;4.18;;;8.10;93.10;;;;;;5057265;28;20050;-59
2022/03/10 06:42:20;;;;;;;7.30;4.35;;;8.20;93.20;;;;;;5075470;28;20538;-60
2022/03/10 06:44:49;;;;;;;12.27;4.65;;;8.30;93.20;;;;;;5040914;28;20048;-60
2022/03/10 06:47:16;;;;;;;8.88;5.38;;;8.30;93.40;;;;;;5057554;28;20078;-61
2022/03/10 06:49:44;;;;;;;9.65;5.72;;;8.60;93.40;;;;;;5057584;28;20044;-60
2022/03/10 06:52:11;;;;;;;5.93;4.40;;;8.90;93.10;;;;;;5075122;28;20040;-60
2022/03/10 06:54:41;;;;;;;7.30;4.20;;;9.30;93.00;;;;;;5075166;28;20447;-60
2022/03/10 06:57:09;;;;;;;6.35;4.28;;;9.40;92.50;;;;;;5057298;28;20044;-61
2022/03/10 06:59:37;;;;;;;6.20;4.07;;;9.50;92.20;;;;;;5075171;28;20048;-61
2022/03/10 07:02:05;;;;;;;5.57;3.65;;;9.40;92.30;;;;;;5074984;28;20033;-61
2022/03/10 07:04:33;;;;;;;4.32;3.20;;;9.10;92.50;;;;;;5057131;28;20037;-60
2022/03/10 07:07:00;;;;;;;7.30;3.05;;;8.80;94.00;;;;;;5074992;28;20036;-61
2022/03/10 07:09:27;;;;;;;4.30;2.50;;;8.70;95.00;;;;;;5057754;28;20424;-60
2022/03/10 07:11:55;;;;;;;4.40;2.97;;;8.60;95.80;;;;;;5075181;28;20406;-60
2022/03/10 07:14:23;;;;;;;5.07;3.00;;;8.50;96.20;;;;;;5074774;28;20072;-61
2022/03/10 07:16:52;;;;;;;5.22;3.42;;;8.50;96.70;;;;;;5074537;28;20067;-60
2022/03/10 07:19:19;;;;;;;4.72;2.90;;;8.50;97.10;;;;;;5057182;28;20040;-60
2022/03/10 07:21:47;;;;;;;6.20;3.13;;;8.50;97.50;;;;;;5056811;28;20064;-60
2022/03/10 07:24:14;;;;;;;4.30;2.85;;;8.50;97.70;;;;;;5074444;28;20098;-60
2022/03/10 07:26:42;;;;;;;7.30;5.10;;;8.70;98.10;;;;;;5074602;28;20048;-60
2022/03/10 07:29:10;;;;;;;5.32;4.03;;;8.90;98.60;;;;;;5056826;28;20042;-60
2022/03/10 07:31:38;;;;;;;7.38;3.97;;;9.10;98.70;;;;;;5074661;28;20044;-60
2022/03/10 07:34:06;;;;;;;5.05;3.67;;;9.30;98.20;;;;;;5074424;28;20068;-60
2022/03/10 07:36:33;;;;;;;6.55;4.10;;;9.30;97.70;;;;;;5074333;28;20098;-60
2022/03/10 07:39:01;;;;;;;6.28;4.22;;;9.40;97.60;;;;;;5074447;28;20037;-61
2022/03/10 07:41:29;;;;;;;6.82;4.57;;;9.40;97.70;;;;;;5074304;28;20170;-60
2022/03/10 07:43:59;;;;;;;4.65;3.63;;;9.40;97.90;;;;;;5074311;28;20127;-60
2022/03/10 07:46:27;;;;;;;5.95;4.32;;;9.40;98.00;;;;;;5073977;28;20048;-61
2022/03/10 07:48:54;;;;;;;11.38;6.07;;;9.40;98.10;;;;;;5073889;28;20040;-60
2022/03/10 07:51:22;;;;;;;9.60;6.38;;;9.50;98.00;;;;;;5056619;28;20036;-60
2022/03/10 07:53:49;;;;;;;9.43;5.30;;;9.60;97.80;;;;;;5073961;28;20090;-60
2022/03/10 07:56:17;;;;;;;7.28;5.03;;;9.80;97.20;;;;;;5056489;28;20127;-61
2022/03/10 07:58:45;;;;;;;6.28;4.03;;;10.00;96.80;;;;;;5039667;28;20041;-60
2022/03/10 08:01:13;;;;;;;7.90;5.03;;;10.10;96.60;;;;;;5055472;28;20131;-61
2022/03/10 08:03:41;;;;;;;11.98;5.35;;;10.10;96.50;;;;;;5055774;28;20080;-60
2022/03/10 08:06:08;;;;;;;8.05;4.90;;;10.20;96.40;;;;;;5056072;28;20094;-61
2022/03/10 08:08:37;;;;;;;6.85;5.72;;;10.30;96.50;;;;;;5073947;28;20071;-60
2022/03/10 08:11:08;;;;;;;8.68;5.93;;;10.50;96.50;;;;;;5073934;28;20040;-60
2022/03/10 08:13:36;;;;;;;8.73;6.03;;;10.60;96.30;;;;;;5073746;28;20036;-60
2022/03/10 08:16:23;;;;;;;12.27;7.05;;;10.70;96.20;;;;;;5055990;28;20044;-60
2022/03/10 08:18:51;;;;;;;16.15;5.93;;;10.70;95.80;;;;;;5074042;28;20044;-60
2022/03/10 08:21:18;;;;;;;14.75;6.22;;;10.70;95.90;;;;;;5039496;28;20048;-61
2022/03/10 08:23:46;;;;;;;8.88;6.03;;;10.70;96.10;;;;;;5073656;28;20128;-60
2022/03/10 08:26:13;;;;;;;7.65;5.30;;;10.50;96.50;;;;;;5055604;28;20044;-61
2022/03/10 08:28:41;;;;;;;6.38;4.45;;;10.50;96.50;;;;;;5055521;28;20135;-61
2022/03/10 08:31:10;;;;;;;7.28;4.75;;;10.50;96.50;;;;;;5073807;28;20075;-61
2022/03/10 08:33:40;;;;;;;9.15;4.45;;;10.50;96.60;;;;;;5073633;28;20044;-60
2022/03/10 08:36:07;;;;;;;8.98;5.82;;;10.50;96.80;;;;;;5073476;28;20459;-61
2022/03/10 08:38:37;;;;;;;8.13;5.68;;;10.50;97.00;;;;;;5055559;28;20059;-61
2022/03/10 08:41:05;;;;;;;9.35;5.53;;;10.60;97.10;;;;;;5073403;28;20135;-61
2022/03/10 08:43:33;;;;;;;7.25;4.03;;;10.60;97.10;;;;;;5073243;28;20044;-60
2022/03/10 08:46:01;;;;;;;9.38;5.05;;;10.70;97.00;;;;;;5055574;28;20052;-61
2022/03/10 08:48:32;;;;;;;8.32;5.03;;;10.60;96.90;;;;;;5056254;28;20055;-60
2022/03/10 08:51:02;;;;;;;6.70;4.07;;;10.60;97.00;;;;;;5073692;28;20054;-60
2022/03/10 08:53:31;;;;;;;7.82;4.45;;;10.60;97.10;;;;;;5073807;28;20055;-60
2022/03/10 08:55:59;;;;;;;6.13;4.38;;;10.50;97.40;;;;;;5039050;28;20082;-61
2022/03/10 08:58:27;;;;;;;9.45;5.45;;;10.40;97.50;;;;;;5073427;28;20041;-60
2022/03/10 09:00:54;;;;;;;8.05;4.65;;;10.30;97.30;;;;;;5072583;28;20052;-61
2022/03/10 09:03:35;;;;;;;7.60;4.53;;;10.50;97.30;;;;;;5077224;28;20045;-60
2022/03/10 09:06:02;;;;;;;10.02;4.72;;;10.80;97.00;;;;;;5059423;28;20052;-61
2022/03/10 09:08:30;;;;;;;8.55;4.65;;;11.20;96.90;;;;;;5077044;28;20041;-60
2022/03/10 09:10:57;;;;;;;9.75;5.03;;;11.70;96.50;;;;;;5059838;28;20044;-61
2022/03/10 09:13:25;;;;;;;6.57;3.83;;;12.20;95.90;;;;;;5077137;28;20132;-60
2022/03/10 09:15:53;;;;;;;6.68;3.85;;;12.40;94.50;;;;;;5076895;28;20051;-61
2022/03/10 09:18:20;;;;;;;8.82;5.00;;;12.60;94.00;;;;;;5076968;28;20039;-61
2022/03/10 09:20:48;;;;;;;7.32;4.05;;;12.70;93.30;;;;;;5077090;28;20037;-58
2022/03/10 09:23:16;;;;;;;9.38;4.47;;;12.80;92.70;;;;;;5077249;28;20079;-58
2022/03/10 09:25:43;;;;;;;7.78;5.03;;;12.90;93.20;;;;;;5058843;28;20047;-58
2022/03/10 09:28:12;;;;;;;5.93;3.95;;;12.80;93.00;;;;;;5076883;28;20072;-58
2022/03/10 09:30:40;;;;;;;7.18;4.35;;;12.60;93.00;;;;;;5076603;28;20040;-58
2022/03/10 09:33:07;;;;;;;5.25;3.83;;;12.60;93.30;;;;;;5058881;28;20127;-58
2022/03/10 09:35:35;;;;;;;7.85;4.75;;;12.70;93.60;;;;;;5076635;28;20383;-60
2022/03/10 09:38:02;;;;;;;5.50;3.35;;;12.60;93.30;;;;;;5076941;28;20040;-61
2022/03/10 09:40:30;;;;;;;6.18;3.53;;;12.50;92.70;;;;;;5058737;28;20044;-61
2022/03/10 09:42:58;;;;;;;5.00;3.53;;;12.40;92.40;;;;;;5076505;28;20055;-61
2022/03/10 09:45:30;;;;;;;5.35;3.80;;;12.50;92.10;;;;;;5076536;28;20044;-60
2022/03/10 09:47:57;;;;;;;5.90;4.05;;;12.60;92.40;;;;;;5058754;28;20048;-61
2022/03/10 09:50:25;;;;;;;11.93;4.70;;;12.60;92.70;;;;;;5076290;28;20079;-60
2022/03/10 09:52:53;;;;;;;5.65;4.07;;;12.40;92.80;;;;;;5076449;28;20469;-61
2022/03/10 09:55:20;;;;;;;5.10;3.22;;;12.40;92.70;;;;;;5076537;28;20045;-60
2022/03/10 09:57:48;;;;;;;7.43;4.57;;;12.20;92.80;;;;;;5076323;28;20041;-61
2022/03/10 10:00:17;;;;;;;8.05;4.75;;;12.10;92.60;;;;;;5076135;28;20483;-61
2022/03/10 10:02:46;;;;;;;13.10;7.90;;;12.00;92.90;;;;;;5076361;28;20048;-58
2022/03/10 10:05:26;;;;;;;12.25;5.90;;;12.00;93.10;;;;;;5058364;28;20573;-58
2022/03/10 10:08:20;;;;;;;10.52;6.30;;;12.00;93.30;;;;;;5076426;28;20044;-58
2022/03/10 10:10:50;;;;;;;8.57;5.85;;;11.90;93.30;;;;;;5072328;28;20040;-58
2022/03/10 10:13:32;;;;;;;7.68;5.18;;;12.10;92.20;;;;;;5056820;28;20128;-58
2022/03/10 10:16:07;;;;;;;8.68;4.95;;;12.20;92.30;;;;;;5076263;28;20045;-58
2022/03/10 10:18:37;;;;;;;8.27;4.50;;;12.30;92.00;;;;;;5058332;28;20056;-58
2022/03/10 10:21:10;;;;;;;7.82;5.60;;;12.30;91.30;;;;;;5075999;28;20429;-58
2022/03/10 10:23:39;;;;;;;8.68;4.90;;;12.30;91.00;;;;;;5075814;28;20041;-58
2022/03/10 10:26:11;;;;;;;12.18;6.90;;;12.30;91.30;;;;;;5075572;28;20032;-58
2022/03/10 10:28:48;;;;;;;8.98;4.78;;;12.50;91.30;;;;;;5075654;28;20489;-58
2022/03/10 10:31:26;;;;;;;9.50;5.80;;;12.80;91.00;;;;;;5075800;28;20503;-61
2022/03/10 10:33:58;;;;;;;6.70;4.53;;;12.90;90.60;;;;;;5075826;28;20128;-60
2022/03/10 10:36:29;;;;;;;7.57;4.70;;;12.90;90.10;;;;;;5075586;28;20048;-61
2022/03/10 10:39:15;;;;;;;6.90;4.93;;;12.90;89.90;;;;;;5075820;28;20052;-61
2022/03/10 10:41:45;;;;;;;8.82;4.38;;;12.80;88.90;;;;;;5075638;28;20041;-58
2022/03/10 10:44:26;;;;;;;8.55;5.43;;;12.90;89.60;;;;;;5075431;28;20383;-58
2022/03/10 10:47:00;;;;;;;7.55;4.53;;;13.20;89.90;;;;;;5057487;28;20095;-58
2022/03/10 10:49:35;;;;;;;9.48;5.88;;;13.30;89.50;;;;;;5058268;28;20087;-58
2022/03/10 10:52:09;;;;;;;11.50;5.38;;;13.60;89.50;;;;;;5057907;28;20064;-58
2022/03/10 10:54:37;;;;;;;10.75;7.53;;;13.80;88.90;;;;;;5075229;28;20106;-58
2022/03/10 10:57:09;;;;;;;7.25;4.35;;;13.90;88.40;;;;;;5075153;28;20396;-58
2022/03/10 10:59:36;;;;;;;9.80;4.22;;;13.80;89.20;;;;;;5074969;28;20094;-58
2022/03/10 11:02:11;;;;;;;6.22;3.13;;;13.90;87.70;;;;;;5074896;28;20087;-58
2022/03/10 11:04:40;;;;;;;5.35;3.50;;;13.70;87.30;;;;;;5057510;28;20043;-58
2022/03/10 11:07:11;;;;;;;8.23;3.45;;;13.30;85.90;;;;;;5074988;28;20121;-58
2022/03/10 11:09:40;;;;;;;6.35;4.10;;;13.10;86.50;;;;;;5074976;28;20487;-61
2022/03/10 11:12:10;;;;;;;6.72;4.63;;;12.80;87.00;;;;;;5074877;28;20040;-61
2022/03/10 11:14:38;;;;;;;6.82;3.88;;;12.60;89.20;;;;;;5075065;28;20048;-61
2022/03/10 11:17:06;;;;;;;8.02;3.42;;;12.40;90.70;;;;;;5074631;28;20467;-61
2022/03/10 11:19:42;;;;;;;7.32;4.22;;;12.30;91.00;;;;;;5057025;28;20048;-60
2022/03/10 11:22:46;;;;;;;7.18;3.92;;;12.30;91.00;;;;;;5074924;28;20076;-60
2022/03/10 11:25:36;;;;;;;8.02;4.43;;;12.30;91.40;;;;;;5020368;28;20487;-61
2022/03/10 11:28:19;;;;;;;7.03;4.30;;;12.50;91.10;;;;;;5056996;28;20086;-58
2022/03/10 11:30:54;;;;;;;8.32;3.85;;;12.70;90.10;;;;;;5074401;28;20049;-58
2022/03/10 11:33:35;;;;;;;7.60;3.72;;;13.00;89.00;;;;;;5074398;28;20075;-58
2022/03/10 11:36:26;;;;;;;9.65;3.13;;;13.30;86.60;;;;;;5074534;28;20045;-58
2022/03/10 11:38:57;;;;;;;8.85;4.18;;;13.60;86.70;;;;;;5074379;28;20052;-58
2022/03/10 11:41:28;;;;;;;7.40;4.38;;;13.90;85.70;;;;;;5074191;28;20037;-58
2022/03/10 11:44:00;;;;;;;6.38;3.67;;;14.10;82.90;;;;;;5074291;28;20136;-58
2022/03/10 11:46:31;;;;;;;8.65;3.85;;;14.00;81.50;;;;;;5074363;28;20437;-58
2022/03/10 11:49:02;;;;;;;10.07;4.07;;;13.90;81.90;;;;;;5074223;28;20048;-58
2022/03/10 11:51:42;;;;;;;9.25;3.85;;;13.70;82.20;;;;;;5074143;28;20041;-58
2022/03/10 11:54:33;;;;;;;7.07;3.92;;;13.50;83.70;;;;;;5056348;28;20124;-58
2022/03/10 11:57:03;;;;;;;5.32;3.47;;;13.30;84.20;;;;;;5056499;28;20135;-60
2022/03/10 11:59:39;;;;;;;6.63;3.63;;;13.10;84.10;;;;;;5056362;28;20506;-61
2022/03/10 12:02:27;;;;;;;10.15;3.33;;;12.90;84.80;;;;;;5074094;28;20438;-61
2022/03/10 12:04:57;;;;;;;6.70;3.70;;;12.90;85.90;;;;;;5052546;28;20143;-60
2022/03/10 12:07:29;;;;;;;7.32;4.82;;;12.70;86.10;;;;;;5083315;28;20487;-61
2022/03/10 12:10:08;;;;;;;11.38;4.50;;;12.50;86.40;;;;;;5066661;28;20039;-61
2022/03/10 12:12:48;;;;;;;8.55;4.60;;;12.40;87.90;;;;;;5084893;28;20040;-61
2022/03/10 12:15:30;;;;;;;11.73;4.90;;;12.30;89.60;;;;;;5061362;28;20029;-61
2022/03/10 12:17:58;;;;;;;6.32;4.38;;;12.10;91.80;;;;;;5058125;28;20099;-61
2022/03/10 12:20:40;;;;;;;12.48;4.95;;;12.00;91.80;;;;;;5073350;28;20060;-61
2022/03/10 12:23:13;;;;;;;10.90;5.53;;;11.90;92.50;;;;;;5081375;28;20037;-61
2022/03/10 12:26:06;;;;;;;9.48;6.30;;;11.80;92.80;;;;;;5066305;28;20044;-60
2022/03/10 12:28:37;;;;;;;15.50;10.00;;;11.80;93.60;;;;;;5041319;28;20507;-58
2022/03/10 12:31:07;;;;;;;11.05;7.00;;;11.60;94.40;;;;;;5063750;28;20041;-58
2022/03/10 12:33:48;;;;;;;7.78;4.82;;;11.60;94.40;;;;;;5087899;28;20040;-58
2022/03/10 12:36:42;;;;;;;10.63;5.47;;;11.50;94.20;;;;;;5074620;28;20136;-58
2022/03/10 12:39:13;;;;;;;12.80;5.47;;;11.40;94.50;;;;;;5077127;28;20394;-58
2022/03/10 12:41:48;;;;;;;10.48;5.18;;;11.40;94.90;;;;;;5079452;28;20056;-58
2022/03/10 12:44:19;;;;;;;13.27;7.75;;;11.40;95.40;;;;;;5058478;28;20040;-58
2022/03/10 12:46:48;;;;;;;12.95;6.90;;;11.40;95.70;;;;;;5040227;28;20045;-58
2022/03/10 12:49:39;;;;;;;9.88;6.30;;;11.30;96.10;;;;;;5082492;28;20044;-60
2022/03/10 12:52:12;;;;;;;11.43;5.45;;;11.20;96.60;;;;;;5065913;28;20059;-60
2022/03/10 12:54:41;;;;;;;8.27;5.53;;;11.10;96.90;;;;;;5060507;28;20119;-60
2022/03/10 12:57:10;;;;;;;7.20;4.40;;;11.00;96.50;;;;;;5075714;28;20032;-60
2022/03/10 12:59:40;;;;;;;8.25;5.32;;;11.00;96.80;;;;;;5064011;28;20041;-60
2022/03/10 13:02:12;;;;;;;10.07;4.95;;;11.00;97.10;;;;;;5077836;28;20051;-60
2022/03/10 13:04:57;;;;;;;9.85;5.20;;;11.00;97.40;;;;;;5083274;28;20046;-60
2022/03/10 13:07:28;;;;;;;8.57;4.57;;;11.00;97.80;;;;;;5064908;28;20401;-60
2022/03/10 13:09:56;;;;;;;9.15;5.20;;;11.20;97.90;;;;;;5073970;28;20425;-60
2022/03/10 13:12:29;;;;;;;8.27;5.38;;;11.30;97.80;;;;;;5061789;28;20053;-60